Morrisville, NY

12:24 AM EDT on June 02, 2015 (GMT -0400)
WX-Smithfield/Fenner | | Change Station
CLOSE
Current Station
Personal Weather Station
Location: Canastota, NY
Elevation: 1312 ft
Nearby Weather Stations

Elev 1312 ft 42.98 °N, 75.72 °W | Updated 14 minutes ago

Overcast
Overcast
49.1 °F
Feels Like 49 °F
N
2.7
Wind Variable Wind from ENE

Today
High -- | Low -- °F
--% Chance of Precip.
Yesterday
High -- | Low -- °F
Precip. -- in
5:26 AM 8:35 PM
Full, 100% visible
Pressure 30.17 in
Visibility 4.0 miles
Clouds Overcast 1300 ft
Windchill 49 °F
Dew Point 48 °F
Humidity 96%
Rainfall 0.00 in
Snow Depth Not available.
UV 0 out of 12
Pollen .90 out of 12
Air Quality Not available.
Flu Activity Sporadic
METAR KRME 020353Z AUTO 10006KT 4SM BR OVC013 11/10 A3017 RMK AO2 SLP216 T01060100

More Conditions Fewer Conditions

Pressure 30.17 in
Visibility 4.0 miles
Clouds Overcast 1300 ft
Windchill 49 °F
Dew Point 48 °F
Humidity 96%
Rainfall 0.00 in
Snow Depth Not available.
UV 0 out of 12
Pollen .90 out of 12
Air Quality Not available.
Flu Activity Sporadic
METAR KRME 020353Z AUTO 10006KT 4SM BR OVC013 11/10 A3017 RMK AO2 SLP216 T01060100

More Conditions Fewer Conditions

10-Day Weather Forecast

Almanac

Astronomy

Jun. 02, 2015 Rise Set
Actual Time
Civil Twilight
Nautical Twilight
Astronomical Twilight
Moon
Length of Visible Light
Length of Day
Tomorrow will be .
, % of the Moon is Illuminated

Today's Extremes

State Highs State Lows

Community

WunderPhotos

Upload Photos

1,825,905 photos uploaded!

WunderBlogs® & News

Nearby

Air Quality

  Air Quality AQ Index Pollutant
Not available.

Snow Depth

Station Depth Elevation

Earthquake Activity

City Distance Mag. Time & Date
Minimum magnitude displayed is 2.5.

Coastal Water Temperatures

Place Temperature

Stations

Nearby Weather Stations

Station Location Temp. Windchill Dew Point Humidity Wind Precip. Elev Updated Type